Strona główna
METAR-TAF:

METAR-TAF

Lotnisko :

Eastern Slopes Regional Airport

Fryeburg, Maine, Stany Zjednoczone

Szerokość geograficzna: 43-59-21N, Długość geograficzna: 070-57-01W, wysokość: 137 m

Aktualna obserwacja pogody

Raport powstał 14 minut temu, godzina 19:42 UTC
Cisza
Temperatura 7°C
Wilgotność 100%
Ciśnienie 1013 hPa
Widzialność: 4.8 km
Przerywane chmury na wysokości 400 ft
Zachmurzenie całkowite na wysokości 1300 ft
słaby deszcz, zamglenie

METAR: KIZG 151942Z AUTO 00000KT 3SM -RA BR BKN004 OVC013 07/07 A2990 RMK AO2 P0002 T00720067

czas: 15:56 (19:56 UTC)


TAF: brakujący

Obserwacja i prognoza pogody dla ponad 4000 lotnisk (raport METAR i TAF).

Dostępne stacje oznaczono żółtymi i czerwonymi punktami na mapie.

Najedź kursorem aby zobaczyć nazwę stacji.

Kliknij aby zobaczyć obserwacje i prognozy pogody.

Aby zmienić mapę: kliknij na zielony przycisk z czarnym krzyżykiem, aby powiększyć; na zielony przycisk z myślnikiem, aby pomniejszyć; na zielone strzałki, aby przejść do map sąsiednich.


METAR-TAF: